Time;durP1;ratioP1;P1;durP2;ratioP2;P2;SDS_P1;SDS_P2;PMS_P1;PMS_P2;Temp;Humidity;BMP_temperature;BMP_pressure;BME280_temperature;BME280_humidity;BME280_pressure;Samples;Min_cycle;Max_cycle;Signal;HPM_P1;HPM_P2
2023/07/12 00:00:58;;;;;;;7.53;3.10;;;18.40;99.90;;;;;;6253336;22;20406;-81
2023/07/12 00:03:24;;;;;;;7.50;2.85;;;18.40;99.90;;;;;;6151146;23;20021;-81
2023/07/12 00:05:53;;;;;;;7.50;3.13;;;18.30;99.90;;;;;;6253975;22;20048;-81
2023/07/12 00:08:25;;;;;;;8.20;3.00;;;18.20;99.90;;;;;;6151067;23;20013;-81
2023/07/12 00:10:53;;;;;;;7.63;3.00;;;18.30;99.90;;;;;;6150717;23;20013;-81
2023/07/12 00:13:19;;;;;;;8.32;3.17;;;18.20;99.90;;;;;;6253549;22;20398;-81
2023/07/12 00:15:46;;;;;;;8.23;3.08;;;18.20;99.90;;;;;;6252761;22;20021;-81
2023/07/12 00:18:20;;;;;;;8.13;3.03;;;18.20;99.90;;;;;;6151515;23;20060;-81
2023/07/12 00:20:47;;;;;;;9.43;3.92;;;18.20;99.90;;;;;;6251830;22;20453;-82
2023/07/12 00:23:14;;;;;;;8.85;3.30;;;18.20;99.90;;;;;;6150988;23;20084;-81
2023/07/12 00:25:41;;;;;;;8.27;3.45;;;18.20;99.90;;;;;;6253617;22;20096;-81
2023/07/12 00:28:26;;;;;;;7.75;3.30;;;18.30;99.90;;;;;;6253552;22;20018;-81
2023/07/12 00:30:53;;;;;;;8.93;3.55;;;18.20;99.90;;;;;;6150532;23;20010;-81
2023/07/12 00:33:19;;;;;;;7.97;3.40;;;18.20;99.90;;;;;;6254018;22;20022;-80
2023/07/12 00:35:46;;;;;;;8.43;3.67;;;18.20;99.90;;;;;;6150017;22;20013;-81
2023/07/12 00:38:20;;;;;;;9.25;3.53;;;18.20;99.90;;;;;;6151041;23;20084;-80
2023/07/12 00:41:13;;;;;;;8.77;4.15;;;18.20;99.90;;;;;;6253525;22;20009;-81
2023/07/12 00:43:55;;;;;;;9.10;4.20;;;18.20;99.90;;;;;;6252391;22;20045;-81
2023/07/12 00:46:40;;;;;;;9.95;4.05;;;18.10;99.90;;;;;;6151201;23;20092;-81
2023/07/12 00:49:09;;;;;;;8.27;3.83;;;18.10;99.90;;;;;;6253090;22;20029;-81
2023/07/12 00:52:15;;;;;;;9.32;4.10;;;18.20;99.90;;;;;;6150484;23;20021;-81
2023/07/12 00:55:01;;;;;;;9.25;3.90;;;18.10;99.90;;;;;;6156879;22;20029;-81
2023/07/12 00:57:32;;;;;;;10.15;4.10;;;18.10;99.90;;;;;;6150014;23;20021;-81
2023/07/12 01:00:12;;;;;;;9.18;4.05;;;18.10;99.90;;;;;;6253535;22;20025;-81
2023/07/12 01:02:43;;;;;;;8.90;3.78;;;18.10;99.90;;;;;;6252927;22;20045;-81
2023/07/12 01:05:09;;;;;;;9.20;3.70;;;18.10;99.90;;;;;;6253363;22;20116;-81
2023/07/12 01:07:34;;;;;;;9.65;3.97;;;18.10;99.90;;;;;;6150710;23;20045;-81
2023/07/12 01:10:00;;;;;;;9.88;3.90;;;18.10;99.90;;;;;;6252767;22;20022;-81
2023/07/12 01:12:26;;;;;;;8.98;4.22;;;18.10;99.90;;;;;;6150921;23;20016;-81
2023/07/12 01:14:52;;;;;;;10.32;4.43;;;18.10;99.90;;;;;;6253394;22;20098;-81
2023/07/12 01:17:20;;;;;;;9.18;4.05;;;18.10;99.90;;;;;;6252528;22;20094;-81
2023/07/12 01:19:45;;;;;;;10.43;4.32;;;18.10;99.90;;;;;;6253196;22;20412;-80
2023/07/12 01:22:11;;;;;;;10.10;4.00;;;18.10;99.90;;;;;;6253039;22;20024;-81
2023/07/12 01:24:37;;;;;;;10.10;4.28;;;18.00;99.90;;;;;;6150079;23;20017;-81
2023/07/12 01:27:19;;;;;;;8.93;4.40;;;18.00;99.90;;;;;;6150582;23;20024;-81
2023/07/12 01:29:46;;;;;;;9.18;4.22;;;17.90;99.90;;;;;;6252887;22;20014;-81
2023/07/12 01:32:12;;;;;;;9.45;3.90;;;17.90;99.90;;;;;;6150670;22;20119;-81
2023/07/12 01:34:38;;;;;;;10.38;4.40;;;17.90;99.90;;;;;;6150588;23;20087;-81
2023/07/12 01:37:05;;;;;;;9.00;4.03;;;17.90;99.90;;;;;;6252615;22;20094;-81
2023/07/12 01:39:32;;;;;;;9.93;4.20;;;17.90;99.90;;;;;;6252359;22;20022;-81
2023/07/12 01:41:58;;;;;;;8.80;4.03;;;17.80;99.90;;;;;;6150583;23;20329;-81
2023/07/12 01:44:24;;;;;;;10.07;4.40;;;17.80;99.90;;;;;;6252954;22;20014;-81
2023/07/12 01:46:49;;;;;;;9.27;4.40;;;17.90;99.90;;;;;;6251743;22;20014;-80
2023/07/12 01:49:15;;;;;;;10.00;4.43;;;18.00;99.90;;;;;;6253154;22;20018;-80
2023/07/12 01:51:40;;;;;;;9.60;4.50;;;17.90;99.90;;;;;;6149586;23;20017;-81
2023/07/12 01:54:06;;;;;;;12.27;4.78;;;18.00;99.90;;;;;;6252203;22;20124;-80
2023/07/12 01:56:32;;;;;;;9.88;4.50;;;17.80;99.90;;;;;;6251637;22;20449;-81
2023/07/12 01:58:57;;;;;;;9.23;3.92;;;17.80;99.90;;;;;;6150717;22;20017;-80
2023/07/12 02:01:23;;;;;;;9.57;4.20;;;17.80;99.90;;;;;;6252584;22;20017;-81
2023/07/12 02:03:48;;;;;;;11.23;4.25;;;17.70;99.90;;;;;;6150369;23;20013;-80
2023/07/12 02:06:14;;;;;;;8.88;4.00;;;17.80;99.90;;;;;;6251378;22;20068;-81
2023/07/12 02:08:40;;;;;;;9.63;4.30;;;17.80;99.90;;;;;;6251951;22;20341;-80
2023/07/12 02:11:05;;;;;;;10.73;4.25;;;17.70;99.90;;;;;;6252982;22;20017;-81
2023/07/12 02:13:31;;;;;;;9.43;4.15;;;17.70;99.90;;;;;;6149968;23;20306;-81
2023/07/12 02:15:59;;;;;;;9.52;4.35;;;17.70;99.90;;;;;;6252534;22;20018;-81
2023/07/12 02:18:25;;;;;;;11.82;4.30;;;17.70;99.90;;;;;;6251852;22;20026;-80
2023/07/12 02:20:51;;;;;;;10.40;4.13;;;17.70;99.90;;;;;;6251778;22;20041;-81
2023/07/12 02:23:17;;;;;;;9.85;4.55;;;17.60;99.90;;;;;;6253097;22;20022;-81
2023/07/12 02:25:42;;;;;;;10.48;4.25;;;17.70;99.90;;;;;;6150445;23;20047;-81
2023/07/12 02:28:09;;;;;;;10.05;4.13;;;17.80;99.90;;;;;;6252126;22;20088;-81
2023/07/12 02:30:36;;;;;;;11.57;4.20;;;17.70;99.90;;;;;;6150186;23;20052;-81
2023/07/12 02:33:05;;;;;;;10.55;4.50;;;17.60;99.90;;;;;;6253070;22;20009;-81
2023/07/12 02:35:31;;;;;;;11.70;4.80;;;17.70;99.90;;;;;;6149004;23;20558;-81
2023/07/12 02:37:58;;;;;;;9.88;4.90;;;17.50;99.90;;;;;;6258116;22;20017;-82
2023/07/12 02:40:25;;;;;;;12.18;4.70;;;17.50;99.90;;;;;;6257553;22;20017;-81
2023/07/12 02:42:51;;;;;;;10.70;4.90;;;17.50;99.90;;;;;;6251155;22;20353;-81
2023/07/12 02:45:17;;;;;;;13.15;5.00;;;17.60;99.90;;;;;;6150314;22;20014;-81
2023/07/12 02:47:43;;;;;;;12.32;5.05;;;17.40;99.90;;;;;;6150167;23;20468;-81
2023/07/12 02:50:09;;;;;;;11.82;5.65;;;17.40;99.90;;;;;;6252174;22;20442;-81
2023/07/12 02:52:35;;;;;;;11.60;5.28;;;17.50;99.90;;;;;;6251062;22;20025;-81
2023/07/12 02:55:01;;;;;;;15.25;5.65;;;17.50;99.90;;;;;;6251940;22;20021;-81
2023/07/12 02:57:27;;;;;;;12.10;5.35;;;17.40;99.90;;;;;;6252558;22;20086;-81
2023/07/12 02:59:53;;;;;;;12.68;5.80;;;17.40;99.90;;;;;;6253173;22;20164;-81
2023/07/12 03:02:18;;;;;;;12.20;5.88;;;17.40;99.90;;;;;;6251126;22;20824;-82
2023/07/12 03:04:44;;;;;;;10.73;5.85;;;17.40;99.90;;;;;;6252696;22;20326;-81
2023/07/12 03:07:10;;;;;;;13.35;6.00;;;17.50;99.90;;;;;;6150244;23;20088;-80
2023/07/12 03:09:36;;;;;;;13.52;6.03;;;17.50;99.90;;;;;;6149589;23;20020;-81
2023/07/12 03:12:01;;;;;;;18.77;6.53;;;17.40;99.90;;;;;;6251953;22;20503;-81
2023/07/12 03:14:27;;;;;;;11.98;5.55;;;17.40;99.90;;;;;;6150448;23;20025;-81
2023/07/12 03:16:53;;;;;;;11.90;5.90;;;17.40;99.90;;;;;;6251472;22;20022;-81
2023/07/12 03:19:19;;;;;;;12.52;5.90;;;17.30;99.90;;;;;;6252554;22;20024;-81
2023/07/12 03:21:46;;;;;;;12.32;5.57;;;17.30;99.90;;;;;;6251503;22;20116;-80
2023/07/12 03:24:12;;;;;;;12.60;6.25;;;17.30;99.90;;;;;;6251913;22;20013;-80
2023/07/12 03:26:38;;;;;;;16.30;5.72;;;17.20;99.90;;;;;;6150389;23;20067;-81
2023/07/12 03:29:04;;;;;;;13.38;5.43;;;17.20;99.90;;;;;;6150379;23;20010;-80
2023/07/12 03:31:31;;;;;;;14.35;5.72;;;17.30;99.90;;;;;;6147863;23;20044;-80
2023/07/12 03:33:57;;;;;;;13.05;5.60;;;17.30;99.90;;;;;;6251502;22;20048;-80
2023/07/12 03:36:25;;;;;;;11.27;5.60;;;17.20;99.90;;;;;;6252251;22;20028;-81
2023/07/12 03:38:52;;;;;;;13.02;5.25;;;17.40;99.90;;;;;;6148562;23;20025;-81
2023/07/12 03:41:21;;;;;;;15.48;5.25;;;17.20;99.90;;;;;;6149752;23;20044;-81
2023/07/12 03:43:47;;;;;;;13.13;5.38;;;17.10;99.90;;;;;;6251614;22;20021;-81
2023/07/12 03:46:13;;;;;;;11.48;5.15;;;17.10;99.90;;;;;;6149073;23;20037;-81
2023/07/12 03:48:45;;;;;;;12.70;5.32;;;17.20;99.90;;;;;;6251826;22;20368;-81
2023/07/12 03:51:14;;;;;;;;;;;17.20;99.90;;;;;;6150038;23;20361;-80
2023/07/12 03:53:40;;;;;;;12.00;5.35;;;17.10;99.90;;;;;;6150479;22;20339;-81
2023/07/12 03:56:06;;;;;;;12.45;5.40;;;17.10;99.90;;;;;;6151381;22;20018;-81
2023/07/12 03:58:36;;;;;;;13.05;5.40;;;17.40;99.90;;;;;;6253211;22;20104;-81
2023/07/12 04:01:04;;;;;;;13.32;5.03;;;17.10;99.90;;;;;;6253941;22;20090;-80
2023/07/12 04:03:32;;;;;;;11.00;4.70;;;17.00;99.90;;;;;;6150626;23;20017;-81
2023/07/12 04:05:58;;;;;;;12.23;4.80;;;17.00;99.90;;;;;;6149890;23;20013;-80
2023/07/12 04:08:24;;;;;;;15.13;5.47;;;16.90;99.90;;;;;;6253890;22;20097;-81
2023/07/12 04:10:53;;;;;;;14.60;5.38;;;17.00;99.90;;;;;;6151011;23;20017;-81
2023/07/12 04:13:20;;;;;;;12.52;5.40;;;17.00;99.90;;;;;;6253431;22;20041;-81
2023/07/12 04:15:46;;;;;;;13.80;5.38;;;16.90;99.90;;;;;;6253791;22;20014;-81
2023/07/12 04:18:11;;;;;;;13.70;5.10;;;16.90;99.90;;;;;;6151548;23;20120;-81
2023/07/12 04:20:38;;;;;;;12.15;4.93;;;16.90;99.90;;;;;;6252698;22;20096;-80
2023/07/12 04:23:04;;;;;;;11.95;5.28;;;16.90;99.90;;;;;;6253644;22;20013;-81
2023/07/12 04:25:30;;;;;;;12.85;5.20;;;16.80;99.90;;;;;;6253945;22;20013;-81
2023/07/12 04:27:55;;;;;;;14.45;5.55;;;16.80;99.90;;;;;;6253134;22;20345;-81
2023/07/12 04:30:21;;;;;;;15.43;5.18;;;16.80;99.90;;;;;;6151263;23;20022;-80
2023/07/12 04:32:47;;;;;;;13.52;4.97;;;16.90;99.90;;;;;;6150623;23;20073;-80
2023/07/12 04:35:14;;;;;;;13.68;5.50;;;16.90;99.90;;;;;;6253167;22;20327;-81
2023/07/12 04:37:48;;;;;;;13.30;5.10;;;16.90;99.90;;;;;;6253556;22;20449;-81
2023/07/12 04:40:14;;;;;;;12.18;4.97;;;16.90;99.90;;;;;;6254368;22;20341;-81
2023/07/12 04:42:40;;;;;;;10.98;4.80;;;16.90;99.90;;;;;;6150141;23;20021;-81
2023/07/12 04:45:13;;;;;;;12.35;5.03;;;16.90;99.90;;;;;;6150675;23;20018;-81
2023/07/12 04:47:42;;;;;;;13.93;4.88;;;16.90;99.90;;;;;;6227253;22;20014;-81
2023/07/12 04:50:09;;;;;;;12.05;4.70;;;16.90;99.90;;;;;;6151093;23;20324;-81
2023/07/12 04:52:35;;;;;;;13.55;4.70;;;16.90;99.90;;;;;;6253179;22;20334;-81
2023/07/12 04:55:03;;;;;;;13.52;4.90;;;16.90;99.90;;;;;;6150221;23;20014;-81
2023/07/12 04:57:29;;;;;;;13.70;4.68;;;16.90;99.90;;;;;;6253249;22;20120;-81
2023/07/12 04:59:55;;;;;;;14.02;4.55;;;16.90;99.90;;;;;;6253557;22;20454;-81
2023/07/12 05:02:21;;;;;;;10.98;5.22;;;16.90;99.90;;;;;;6252820;22;20045;-81
2023/07/12 05:04:46;;;;;;;14.00;4.90;;;17.00;99.90;;;;;;6150858;23;20018;-81
2023/07/12 05:07:12;;;;;;;14.48;5.82;;;16.90;99.90;;;;;;6253193;22;20021;-81
2023/07/12 05:09:38;;;;;;;12.55;5.13;;;16.90;99.90;;;;;;6150246;23;20376;-80
2023/07/12 05:12:04;;;;;;;13.57;4.97;;;16.90;99.90;;;;;;6154510;22;20019;-81
2023/07/12 05:14:30;;;;;;;14.55;5.30;;;16.90;99.90;;;;;;6253401;22;20067;-79
2023/07/12 05:16:55;;;;;;;11.77;5.35;;;17.30;99.90;;;;;;6150497;23;20017;-79
2023/07/12 05:19:22;;;;;;;12.25;4.95;;;16.90;99.90;;;;;;6151294;23;20021;-75
2023/07/12 05:21:50;;;;;;;13.48;5.18;;;17.00;99.90;;;;;;6150509;22;20025;-76
2023/07/12 05:24:16;;;;;;;16.02;5.72;;;17.00;99.90;;;;;;6150210;23;20014;-76
2023/07/12 05:26:42;;;;;;;15.85;5.60;;;17.00;99.90;;;;;;6252474;22;20017;-76
2023/07/12 05:29:12;;;;;;;15.85;5.90;;;17.00;99.90;;;;;;6151244;23;20013;-76
2023/07/12 05:31:38;;;;;;;14.95;6.22;;;17.00;99.90;;;;;;6149868;23;20045;-76
2023/07/12 05:34:03;;;;;;;14.77;6.07;;;17.00;99.90;;;;;;6253439;22;20041;-76
2023/07/12 05:36:29;;;;;;;15.25;6.22;;;17.10;99.90;;;;;;6150923;23;20048;-76
2023/07/12 05:38:56;;;;;;;14.95;6.75;;;17.20;99.90;;;;;;6149723;23;20018;-75
2023/07/12 05:41:21;;;;;;;15.20;6.30;;;17.40;99.90;;;;;;6151316;23;20017;-76
2023/07/12 05:43:47;;;;;;;18.67;6.68;;;17.50;99.90;;;;;;6252716;22;20108;-77
2023/07/12 05:46:13;;;;;;;15.20;6.43;;;17.50;99.90;;;;;;6150839;23;20072;-78
2023/07/12 05:48:39;;;;;;;15.25;6.78;;;17.60;99.90;;;;;;6151163;22;20425;-78
2023/07/12 05:51:07;;;;;;;13.32;6.90;;;17.70;99.90;;;;;;6252874;22;20017;-77
2023/07/12 05:53:33;;;;;;;14.55;6.93;;;17.50;99.90;;;;;;6150425;23;20021;-78
2023/07/12 05:56:00;;;;;;;18.90;8.00;;;17.50;99.90;;;;;;6252911;22;20346;-78
2023/07/12 05:58:29;;;;;;;16.23;8.88;;;17.40;99.90;;;;;;6149616;23;20018;-78
2023/07/12 06:01:01;;;;;;;19.05;8.52;;;17.40;99.90;;;;;;6151027;23;20022;-78
2023/07/12 06:03:32;;;;;;;16.80;8.40;;;17.30;99.90;;;;;;6151737;23;20085;-78
2023/07/12 06:05:58;;;;;;;14.13;7.28;;;17.40;99.90;;;;;;6253060;22;20017;-79
2023/07/12 06:08:25;;;;;;;21.95;8.45;;;17.40;99.90;;;;;;6150547;23;20491;-79
2023/07/12 06:10:51;;;;;;;16.70;7.60;;;17.50;99.90;;;;;;6150731;23;20009;-78
2023/07/12 06:13:17;;;;;;;15.52;7.90;;;17.60;99.90;;;;;;6253086;22;20020;-78
2023/07/12 06:15:45;;;;;;;19.48;8.05;;;17.60;99.90;;;;;;6150285;23;20021;-78
2023/07/12 06:18:11;;;;;;;17.27;7.85;;;17.50;99.90;;;;;;6151273;23;20062;-77
2023/07/12 06:20:37;;;;;;;18.02;7.45;;;17.60;99.90;;;;;;6149934;23;20421;-78
2023/07/12 06:23:02;;;;;;;16.70;7.75;;;17.60;99.90;;;;;;6151125;23;20396;-78
2023/07/12 06:25:28;;;;;;;16.83;7.70;;;17.60;99.90;;;;;;6253411;22;20013;-78
2023/07/12 06:27:54;;;;;;;17.27;7.22;;;17.70;99.90;;;;;;6150299;22;20049;-79
2023/07/12 06:30:20;;;;;;;18.15;7.82;;;17.70;99.90;;;;;;6151291;23;20338;-79
2023/07/12 06:32:46;;;;;;;17.75;7.38;;;17.80;99.90;;;;;;6150803;23;20066;-79
2023/07/12 06:35:11;;;;;;;14.57;7.47;;;17.90;99.90;;;;;;6252460;22;20028;-79
2023/07/12 06:37:38;;;;;;;19.55;7.80;;;18.10;99.90;;;;;;6252595;22;20072;-78
2023/07/12 06:40:05;;;;;;;15.25;7.40;;;18.20;99.90;;;;;;6149606;23;20020;-77
2023/07/12 06:42:31;;;;;;;17.63;7.55;;;18.20;99.90;;;;;;6149655;23;20010;-78
2023/07/12 06:44:57;;;;;;;17.17;7.88;;;18.30;99.90;;;;;;6150365;23;20009;-77
2023/07/12 06:47:22;;;;;;;16.80;7.80;;;18.20;99.90;;;;;;6252528;22;20041;-78
2023/07/12 06:49:48;;;;;;;16.30;7.65;;;18.10;99.90;;;;;;6150300;23;20040;-77
2023/07/12 06:52:14;;;;;;;15.88;7.88;;;18.10;99.90;;;;;;6252402;22;20342;-78
2023/07/12 06:54:39;;;;;;;15.68;7.13;;;18.20;99.90;;;;;;6149998;23;20071;-78
2023/07/12 06:57:05;;;;;;;15.27;7.35;;;18.30;99.90;;;;;;6252193;22;20014;-77
2023/07/12 06:59:31;;;;;;;16.02;7.47;;;18.30;99.90;;;;;;6150870;22;20325;-77
2023/07/12 07:01:57;;;;;;;17.10;6.95;;;18.40;99.90;;;;;;6149433;23;20024;-78
2023/07/12 07:04:23;;;;;;;17.10;7.38;;;18.20;99.90;;;;;;6149683;23;20021;-79
2023/07/12 07:06:48;;;;;;;14.90;6.65;;;18.20;99.90;;;;;;6150159;22;20014;-79
2023/07/12 07:09:14;;;;;;;16.27;6.93;;;18.10;99.90;;;;;;6149765;23;20021;-79
2023/07/12 07:11:41;;;;;;;14.38;6.70;;;18.30;99.90;;;;;;6251475;22;20472;-80
2023/07/12 07:14:06;;;;;;;19.10;7.60;;;18.60;99.90;;;;;;6149823;23;20092;-80
2023/07/12 07:16:32;;;;;;;14.32;7.60;;;18.70;99.90;;;;;;6149035;23;20049;-77
2023/07/12 07:18:58;;;;;;;15.30;7.65;;;18.80;99.90;;;;;;6150447;23;20104;-77
2023/07/12 07:21:24;;;;;;;18.58;7.43;;;18.80;99.90;;;;;;6150238;23;20010;-77
2023/07/12 07:23:49;;;;;;;16.25;7.03;;;18.60;99.90;;;;;;6148745;23;20018;-77
2023/07/12 07:26:15;;;;;;;14.20;6.68;;;18.50;99.90;;;;;;6252662;22;20024;-77
2023/07/12 07:28:41;;;;;;;15.48;6.60;;;18.50;99.90;;;;;;6151169;22;20018;-76
2023/07/12 07:31:08;;;;;;;12.45;7.18;;;18.40;99.90;;;;;;6150847;22;20013;-77
2023/07/12 07:33:37;;;;;;;14.15;6.28;;;18.30;99.90;;;;;;6254014;22;20345;-77
2023/07/12 07:36:08;;;;;;;12.45;5.90;;;18.40;99.90;;;;;;6253575;22;20025;-77
2023/07/12 07:38:35;;;;;;;15.80;6.45;;;18.30;99.90;;;;;;6253392;22;20010;-77
2023/07/12 07:41:05;;;;;;;13.57;6.55;;;18.50;99.90;;;;;;6151700;23;20127;-78
2023/07/12 07:43:31;;;;;;;16.63;6.65;;;18.80;99.90;;;;;;6252878;22;20018;-78
2023/07/12 07:45:56;;;;;;;17.60;6.95;;;18.70;99.90;;;;;;6151775;23;20037;-77
2023/07/12 07:48:22;;;;;;;16.52;6.85;;;18.60;99.90;;;;;;6255034;22;20025;-78
2023/07/12 07:50:48;;;;;;;20.80;7.38;;;18.60;99.90;;;;;;6151016;23;20010;-78
2023/07/12 07:53:13;;;;;;;14.77;6.25;;;18.60;99.90;;;;;;6151711;23;20020;-78
2023/07/12 07:55:42;;;;;;;14.27;6.32;;;18.70;99.90;;;;;;6151652;23;20094;-79
2023/07/12 07:58:09;;;;;;;13.52;5.90;;;18.90;99.90;;;;;;6151415;23;20081;-78
2023/07/12 08:00:36;;;;;;;14.80;6.07;;;19.10;99.90;;;;;;6151508;23;20013;-78
2023/07/12 08:03:06;;;;;;;20.20;5.80;;;19.10;99.90;;;;;;6254206;22;20434;-78
2023/07/12 08:05:32;;;;;;;14.57;5.95;;;19.20;99.90;;;;;;6150398;23;20013;-77
2023/07/12 08:07:58;;;;;;;13.57;6.40;;;19.20;99.90;;;;;;6151754;23;20025;-78
2023/07/12 08:10:27;;;;;;;17.15;5.97;;;19.10;99.90;;;;;;6151919;23;20096;-77
2023/07/12 08:12:55;;;;;;;16.70;6.10;;;19.10;99.90;;;;;;6150799;23;20498;-79
2023/07/12 08:15:21;;;;;;;15.98;6.38;;;19.30;99.90;;;;;;6151811;23;20014;-78
2023/07/12 08:17:47;;;;;;;12.80;6.07;;;19.50;99.90;;;;;;6152963;22;20359;-78
2023/07/12 08:20:13;;;;;;;15.88;5.63;;;19.80;99.90;;;;;;6150799;23;20025;-78
2023/07/12 08:22:39;;;;;;;14.88;6.00;;;20.00;99.90;;;;;;6151077;23;20018;-82
2023/07/12 08:25:05;;;;;;;13.07;5.85;;;19.90;99.90;;;;;;6151735;23;20517;-80
2023/07/12 08:27:31;;;;;;;15.02;5.85;;;19.90;99.90;;;;;;6253331;22;20024;-81
2023/07/12 08:30:00;;;;;;;12.63;5.57;;;20.00;99.90;;;;;;6254589;22;20017;-81
2023/07/12 08:32:32;;;;;;;15.40;5.88;;;20.10;99.90;;;;;;6254766;22;20018;-82
2023/07/12 08:35:01;;;;;;;13.02;5.13;;;20.10;99.90;;;;;;6253565;22;20017;-82
2023/07/12 08:37:27;;;;;;;12.63;5.65;;;20.10;99.90;;;;;;6253871;22;20472;-82
2023/07/12 08:39:54;;;;;;;11.07;5.10;;;20.10;99.90;;;;;;6149992;23;20017;-82
2023/07/12 08:42:30;;;;;;;11.85;4.93;;;20.00;99.90;;;;;;6254365;22;20036;-81
2023/07/12 08:44:59;;;;;;;12.88;5.93;;;20.00;99.90;;;;;;6254394;22;20018;-82
2023/07/12 08:47:30;;;;;;;14.07;5.22;;;20.20;99.90;;;;;;6253114;22;20052;-82
2023/07/12 08:49:56;;;;;;;16.23;5.32;;;20.60;99.90;;;;;;6254204;22;20364;-82
2023/07/12 08:52:27;;;;;;;13.15;5.50;;;20.80;99.90;;;;;;6151548;23;20017;-82
2023/07/12 08:54:55;;;;;;;14.68;5.15;;;20.80;99.90;;;;;;6150275;23;20483;-82
2023/07/12 08:57:25;;;;;;;11.57;5.15;;;20.50;99.90;;;;;;6254839;22;20049;-82
2023/07/12 09:00:02;;;;;;;13.70;4.75;;;20.50;99.90;;;;;;6253619;22;20044;-82
2023/07/12 09:02:27;;;;;;;11.82;4.80;;;20.30;99.90;;;;;;6253783;22;20024;-82
2023/07/12 09:04:57;;;;;;;12.93;5.40;;;20.10;99.90;;;;;;6254031;22;20014;-81
2023/07/12 09:07:28;;;;;;;14.65;5.10;;;19.90;99.90;;;;;;6254256;22;20045;-81
2023/07/12 09:09:56;;;;;;;12.48;4.57;;;19.70;99.90;;;;;;6253702;22;20017;-82
2023/07/12 09:12:35;;;;;;;11.55;4.68;;;19.70;99.90;;;;;;6254037;22;20059;-82
2023/07/12 09:15:10;;;;;;;12.15;4.70;;;19.90;99.90;;;;;;6253825;22;20068;-82
2023/07/12 09:17:45;;;;;;;15.68;5.50;;;20.20;99.90;;;;;;6253667;22;20026;-82
2023/07/12 09:20:29;;;;;;;15.20;5.82;;;20.50;99.90;;;;;;6254116;22;20021;-81
2023/07/12 09:22:56;;;;;;;15.93;5.45;;;20.40;99.90;;;;;;6253166;22;20783;-82
2023/07/12 09:25:33;;;;;;;15.77;5.50;;;20.30;99.90;;;;;;6253879;22;20010;-82
2023/07/12 09:27:58;;;;;;;16.58;6.47;;;20.30;99.90;;;;;;6150894;23;20021;-81
2023/07/12 09:30:27;;;;;;;14.32;5.32;;;20.20;99.90;;;;;;6150752;23;20017;-81
2023/07/12 09:32:54;;;;;;;13.77;5.50;;;20.30;99.90;;;;;;6150998;23;20101;-82
2023/07/12 09:35:28;;;;;;;12.60;5.00;;;20.40;99.90;;;;;;6151353;23;20088;-82
2023/07/12 09:38:06;;;;;;;14.68;5.15;;;20.50;99.90;;;;;;6150186;23;20014;-82
2023/07/12 09:40:48;;;;;;;13.45;4.90;;;20.50;99.90;;;;;;6253760;22;20013;-82
2023/07/12 09:43:21;;;;;;;14.10;5.13;;;20.40;99.90;;;;;;6150903;23;20074;-82
2023/07/12 09:46:08;;;;;;;12.05;5.00;;;20.40;99.90;;;;;;6253465;22;20014;-82
2023/07/12 09:49:04;;;;;;;15.75;6.05;;;20.20;99.90;;;;;;6252992;22;20036;-82
2023/07/12 09:52:04;;;;;;;16.75;5.97;;;20.20;99.90;;;;;;6251753;22;20025;-82
2023/07/12 09:54:48;;;;;;;15.23;5.38;;;20.30;99.90;;;;;;6253086;22;20014;-82
2023/07/12 09:57:35;;;;;;;13.95;5.60;;;20.20;99.90;;;;;;6150398;23;20515;-82
2023/07/12 10:00:04;;;;;;;15.93;5.25;;;20.10;99.90;;;;;;6151202;23;20021;-82
2023/07/12 10:02:36;;;;;;;13.68;4.95;;;20.20;99.90;;;;;;6253312;22;20104;-82
2023/07/12 10:05:18;;;;;;;13.73;4.88;;;20.30;99.90;;;;;;6150969;22;20018;-81
2023/07/12 10:07:53;;;;;;;14.82;5.57;;;20.40;99.90;;;;;;6253173;22;20063;-81
2023/07/12 10:10:21;;;;;;;12.73;6.22;;;20.30;99.90;;;;;;6253928;22;20024;-81
2023/07/12 10:13:02;;;;;;;13.98;5.82;;;20.10;99.90;;;;;;6149950;23;20013;-82
2023/07/12 10:15:32;;;;;;;13.00;6.00;;;19.70;99.90;;;;;;6253725;22;20017;-81
2023/07/12 10:18:00;;;;;;;12.65;5.72;;;19.80;99.90;;;;;;6253313;22;20443;-82
2023/07/12 10:20:29;;;;;;;14.90;7.30;;;19.90;99.90;;;;;;6252509;22;20017;-82
2023/07/12 10:22:56;;;;;;;15.20;6.63;;;19.60;99.90;;;;;;6150964;23;20061;-81
2023/07/12 10:25:29;;;;;;;15.00;7.20;;;20.10;99.90;;;;;;6150122;23;20430;-82
2023/07/12 10:28:11;;;;;;;14.52;7.18;;;20.20;99.90;;;;;;6253429;22;20025;-82
2023/07/12 10:30:38;;;;;;;;;;;20.40;99.90;;;;;;6253729;22;20032;-81
2023/07/12 10:33:26;;;;;;;15.38;7.43;;;20.60;99.90;;;;;;6150659;22;19920;-82
2023/07/12 10:35:56;;;;;;;13.70;7.25;;;20.40;99.90;;;;;;6149955;23;20453;-82
2023/07/12 10:38:22;;;;;;;14.50;6.60;;;20.30;99.90;;;;;;6151005;23;20095;-81
2023/07/12 10:40:53;;;;;;;14.00;6.40;;;20.10;99.90;;;;;;6150865;23;20441;-81
2023/07/12 10:43:29;;;;;;;15.02;6.10;;;20.00;99.90;;;;;;6150704;23;20341;-81
2023/07/12 10:46:05;;;;;;;15.55;5.60;;;19.90;99.90;;;;;;6251526;22;20014;-81
2023/07/12 10:48:31;;;;;;;11.30;5.45;;;19.90;99.90;;;;;;6251730;22;20044;-80
2023/07/12 10:51:28;;;;;;;15.52;6.10;;;19.80;99.90;;;;;;6253334;22;20404;-80
2023/07/12 10:53:55;;;;;;;14.60;5.25;;;19.90;99.90;;;;;;6252764;22;20020;-79
2023/07/12 10:56:44;;;;;;;13.52;5.15;;;19.80;99.90;;;;;;6253459;22;20395;-80
2023/07/12 10:59:30;;;;;;;13.50;4.85;;;19.80;99.90;;;;;;6253205;22;20022;-79
2023/07/12 11:02:05;;;;;;;12.38;3.97;;;19.90;99.90;;;;;;6151102;23;20052;-79
2023/07/12 11:04:31;;;;;;;10.98;3.92;;;20.00;99.90;;;;;;6255036;22;20017;-80
2023/07/12 11:07:02;;;;;;;13.90;4.43;;;20.20;99.90;;;;;;6255425;22;20019;-79
2023/07/12 11:09:43;;;;;;;10.55;4.43;;;20.30;99.90;;;;;;6254535;22;20045;-79
2023/07/12 11:12:11;;;;;;;12.57;4.68;;;20.30;99.90;;;;;;6255317;22;20017;-80
2023/07/12 11:14:37;;;;;;;11.98;4.63;;;20.80;99.90;;;;;;6151163;23;20389;-78
2023/07/12 11:17:11;;;;;;;13.32;4.72;;;21.10;99.90;;;;;;6251241;22;20446;-79
2023/07/12 11:19:39;;;;;;;13.75;4.70;;;21.00;99.90;;;;;;6254654;22;20018;-79
2023/07/12 11:22:46;;;;;;;12.55;4.10;;;20.80;99.90;;;;;;6253704;22;20014;-79
2023/07/12 11:25:30;;;;;;;12.85;4.55;;;20.70;99.90;;;;;;6254742;22;20506;-78
2023/07/12 11:28:03;;;;;;;11.25;4.00;;;20.70;99.90;;;;;;6254508;22;20022;-77
2023/07/12 11:30:29;;;;;;;11.52;3.83;;;20.70;99.90;;;;;;6253052;22;20066;-77
2023/07/12 11:33:09;;;;;;;10.32;3.75;;;21.00;99.90;;;;;;6147147;23;20017;-75
2023/07/12 11:35:43;;;;;;;12.98;4.10;;;20.80;99.90;;;;;;6150038;23;20086;-75
2023/07/12 11:38:16;;;;;;;11.70;4.07;;;20.70;99.90;;;;;;6252143;22;20014;-75
2023/07/12 11:40:43;;;;;;;12.15;4.20;;;21.10;99.90;;;;;;6150802;23;20487;-76
2023/07/12 11:43:32;;;;;;;13.65;4.63;;;21.50;99.90;;;;;;6253708;22;20022;-76
2023/07/12 11:46:09;;;;;;;11.02;4.55;;;22.00;99.90;;;;;;6151652;22;20017;-75
2023/07/12 11:48:35;;;;;;;12.13;4.03;;;22.00;99.90;;;;;;6151400;23;20021;-76
2023/07/12 11:51:04;;;;;;;11.02;4.07;;;22.20;99.90;;;;;;6253586;22;20345;-75
2023/07/12 11:53:30;;;;;;;11.57;3.90;;;22.30;99.90;;;;;;6150931;23;20387;-76
2023/07/12 11:55:56;;;;;;;11.68;3.60;;;22.50;99.90;;;;;;6151845;22;20048;-76
2023/07/12 11:58:26;;;;;;;11.30;3.70;;;22.60;99.90;;;;;;6253448;22;20021;-76
2023/07/12 12:00:55;;;;;;;10.45;3.97;;;22.70;99.90;;;;;;6151609;23;20063;-75
2023/07/12 12:03:21;;;;;;;11.45;4.43;;;22.50;99.90;;;;;;6151244;23;20437;-79
2023/07/12 12:05:48;;;;;;;9.57;4.25;;;22.90;99.90;;;;;;6149614;23;20088;-77
2023/07/12 12:08:18;;;;;;;11.43;4.03;;;22.80;99.90;;;;;;6151623;23;20088;-79
2023/07/12 12:10:48;;;;;;;9.95;3.85;;;23.20;99.90;;;;;;6253451;22;20013;-77
2023/07/12 12:13:19;;;;;;;8.60;3.40;;;23.40;99.90;;;;;;6150896;23;20112;-75
2023/07/12 12:16:17;;;;;;;11.98;3.90;;;23.80;99.90;;;;;;6150843;23;20124;-75
2023/07/12 12:19:00;;;;;;;10.95;3.83;;;23.60;99.90;;;;;;6244311;22;20024;-76
2023/07/12 12:21:26;;;;;;;11.02;3.72;;;23.50;99.90;;;;;;6151590;22;20059;-77
2023/07/12 12:23:57;;;;;;;10.40;3.67;;;23.70;99.90;;;;;;6151459;23;20067;-80
2023/07/12 12:26:31;;;;;;;11.48;3.83;;;23.70;99.90;;;;;;6253714;22;20062;-80
2023/07/12 12:29:22;;;;;;;11.10;4.20;;;23.50;99.90;;;;;;6254739;22;20010;-80
2023/07/12 12:31:53;;;;;;;11.80;3.97;;;23.40;99.90;;;;;;6150953;22;20032;-80
2023/07/12 12:34:21;;;;;;;10.20;3.58;;;23.60;99.90;;;;;;6151349;23;20010;-80
2023/07/12 12:36:57;;;;;;;11.45;3.83;;;24.00;99.90;;;;;;6151347;23;20017;-80
2023/07/12 12:39:23;;;;;;;10.27;3.75;;;23.80;99.90;;;;;;6253327;22;20021;-80
2023/07/12 12:41:54;;;;;;;10.75;3.67;;;23.40;99.90;;;;;;6151407;23;20013;-79
2023/07/12 12:44:21;;;;;;;8.88;3.15;;;23.50;99.90;;;;;;6151402;23;20021;-80
2023/07/12 12:46:51;;;;;;;9.75;3.33;;;23.40;99.90;;;;;;6252918;22;20014;-79
2023/07/12 12:49:24;;;;;;;8.25;2.95;;;23.30;99.90;;;;;;6254522;22;20052;-78